G Poseidon — HP6652 — position and weather

sailwx.info

Track history (hours):
 
Tides and Currents Weather Stations Pressure Air Temp Water Temp Dewpoint Dewpoint Depression Visibility Wind Speed Wind Dir Waves Ship Positions

G Poseidon

Last reported at 2018-May-26 14:25 UTC. Time now 2018-Jun-24 07:04 UTC.
Position N 37°60' E 122°20'.
Warning: this ship's position is 28 days out of date.

Length 232 m; draft 8.8 m.

Type: Ship. MMSI: 354149000.

Date/timePositionNaut miles runAvg speedWind from/ knotsBaromVisibWave heightAir tempDewpointWater temp
2018-May-26 14:25N 37°60' E 122°20'4016.3
2018-May-26 11:57N 38°18' E 121°34'815.9
2018-May-26 11:26N 38°21' E 121°25'715.9
2018-May-26 11:00N 38°24' E 121°17'815.8
2018-May-26 10:30N 38°27' E 121°08'816.0
2018-May-26 10:00N 38°31' E 120°59'1216.1
2018-May-26 09:14N 38°34' E 120°44'516.5
2018-May-26 08:57N 38°35' E 120°38'816.6
2018-May-26 08:30N 38°36' E 120°28'816.6
2018-May-26 07:59N 38°37' E 120°18'816.6
2018-May-26 07:29N 38°38' E 120°07'816.5
2018-May-26 06:59N 38°40' E 119°56'816.5
2018-May-26 06:30N 38°41' E 119°46'1916.2
2018-May-26 05:21N 38°43' E 119°23'3615.5
2018-May-26 03:01N 38°48' E 118°37'115.1
2018-May-26 02:58N 38°48' E 118°36'715.0
2018-May-26 02:30N 38°49' E 118°27'814.7
2018-May-26 01:59N 38°50' E 118°17'714.6
2018-May-26 01:30N 38°53' E 118°09'713.4
2018-May-26 01:00N 38°56' E 118°01'611.8
2018-May-26 00:30N 38°57' E 117°54'6 9.9
2018-May-25 23:52N 39°00' E 117°47'176 4.3
2018-May-24 07:24N 38°21' E 121°26'1214.6
2018-May-24 06:36N 38°14' E 121°39'1615.8
2018-May-24 05:35N 38°05' E 121°55'215.8
2018-May-24 05:30N 38°04' E 121°57'815.9
2018-May-24 05:00N 37°60' E 122°05'915.9
2018-May-24 04:28N 37°55' E 122°13'716.1
2018-May-24 04:00N 37°51' E 122°21'3715.4
2018-May-24 01:38N 37°24' E 122°52'215.8
2018-May-24 01:28N 37°21' E 122°52'22815.9
2018-May-23 11:11N 33°33' E 122°43'316.5
2018-May-23 11:00N 33°30' E 122°42'14515.1
2018-May-23 01:22N 31°06' E 122°31'615.9
2018-May-23 00:59N 31°06' E 122°24'714.3
2018-May-23 00:30N 31°07' E 122°16'714.0
2018-May-23 00:00N 31°11' E 122°10'611.7
2018-May-22 23:30N 31°14' E 122°04'714.9
2018-May-22 23:00N 31°16' E 121°55'713.3
2018-May-22 22:30N 31°18' E 121°48'5 9.0
2018-May-22 21:56N 31°19' E 121°42'1 0.1
2018-May-22 09:28N 31°20' E 121°41'5 6.7
2018-May-22 08:42N 31°18' E 121°47'5 9.3
2018-May-22 08:07N 31°16' E 121°53'110.5
2018-May-22 08:00N 31°16' E 121°54'712.7
2018-May-22 07:26N 31°14' E 122°02'810.8
2018-May-22 06:40N 31°11' E 122°11'2 9.2
2018-May-22 06:26N 31°09' E 122°13'4 9.8
2018-May-22 06:00N 31°07' E 122°17'4 7.6
2018-May-22 05:30N 31°06' E 122°21'4 8.0
2018-May-22 05:00N 31°07' E 122°26'  
2018-May-19 10:49N 24°29' E 119°11'616.8
2018-May-19 10:27N 24°25' E 119°06'716.5
2018-May-19 10:00N 24°20' E 118°60'816.1
2018-May-19 09:30N 24°14' E 118°53'816.1
2018-May-19 09:00N 24°09' E 118°47'816.1
2018-May-19 08:30N 24°04' E 118°40'816.0
2018-May-19 08:00N 23°59' E 118°33'815.6
2018-May-19 07:30N 23°54' E 118°27'815.7
2018-May-19 07:00N 23°49' E 118°21'816.0
2018-May-19 06:30N 23°43' E 118°14'816.2
2018-May-19 06:00N 23°38' E 118°07'816.7
2018-May-19 05:30N 23°32' E 118°01'1017.0
2018-May-19 04:54N 23°25' E 117°52'717.4
2018-May-19 04:30N 23°21' E 117°47'917.5
2018-May-19 04:00N 23°14' E 117°41'1117.8
2018-May-19 03:22N 23°04' E 117°35'  
Track history (hours):
 
Tides and Currents Weather Stations Pressure Air Temp Water Temp Dewpoint Dewpoint Depression Visibility Wind Speed Wind Dir Waves Ship Positions

G Poseidon

Last reported at 2018-May-26 14:25 UTC. Time now 2018-Jun-24 07:04 UTC.
Position N 37°60' E 122°20'.
Warning: this ship's position is 28 days out of date.

Length 232 m; draft 8.8 m.

Type: Ship. MMSI: 354149000.

Date/timePositionNaut miles runAvg speedWind from/ knotsBaromVisibWave heightAir tempDewpointWater temp
2018-May-26 14:25N 37°60' E 122°20'4016.3
2018-May-26 11:57N 38°18' E 121°34'815.9
2018-May-26 11:26N 38°21' E 121°25'715.9
2018-May-26 11:00N 38°24' E 121°17'815.8
2018-May-26 10:30N 38°27' E 121°08'816.0
2018-May-26 10:00N 38°31' E 120°59'1216.1
2018-May-26 09:14N 38°34' E 120°44'516.5
2018-May-26 08:57N 38°35' E 120°38'816.6
2018-May-26 08:30N 38°36' E 120°28'816.6
2018-May-26 07:59N 38°37' E 120°18'816.6
2018-May-26 07:29N 38°38' E 120°07'816.5
2018-May-26 06:59N 38°40' E 119°56'816.5
2018-May-26 06:30N 38°41' E 119°46'1916.2
2018-May-26 05:21N 38°43' E 119°23'3615.5
2018-May-26 03:01N 38°48' E 118°37'115.1
2018-May-26 02:58N 38°48' E 118°36'715.0
2018-May-26 02:30N 38°49' E 118°27'814.7
2018-May-26 01:59N 38°50' E 118°17'714.6
2018-May-26 01:30N 38°53' E 118°09'713.4
2018-May-26 01:00N 38°56' E 118°01'611.8
2018-May-26 00:30N 38°57' E 117°54'6 9.9
2018-May-25 23:52N 39°00' E 117°47'176 4.3
2018-May-24 07:24N 38°21' E 121°26'1214.6
2018-May-24 06:36N 38°14' E 121°39'1615.8
2018-May-24 05:35N 38°05' E 121°55'215.8
2018-May-24 05:30N 38°04' E 121°57'815.9
2018-May-24 05:00N 37°60' E 122°05'915.9
2018-May-24 04:28N 37°55' E 122°13'716.1
2018-May-24 04:00N 37°51' E 122°21'3715.4
2018-May-24 01:38N 37°24' E 122°52'215.8
2018-May-24 01:28N 37°21' E 122°52'22815.9
2018-May-23 11:11N 33°33' E 122°43'316.5
2018-May-23 11:00N 33°30' E 122°42'14515.1
2018-May-23 01:22N 31°06' E 122°31'615.9
2018-May-23 00:59N 31°06' E 122°24'714.3
2018-May-23 00:30N 31°07' E 122°16'714.0
2018-May-23 00:00N 31°11' E 122°10'611.7
2018-May-22 23:30N 31°14' E 122°04'714.9
2018-May-22 23:00N 31°16' E 121°55'713.3
2018-May-22 22:30N 31°18' E 121°48'5 9.0
2018-May-22 21:56N 31°19' E 121°42'1 0.1
2018-May-22 09:28N 31°20' E 121°41'5 6.7
2018-May-22 08:42N 31°18' E 121°47'5 9.3
2018-May-22 08:07N 31°16' E 121°53'110.5
2018-May-22 08:00N 31°16' E 121°54'712.7
2018-May-22 07:26N 31°14' E 122°02'810.8
2018-May-22 06:40N 31°11' E 122°11'2 9.2
2018-May-22 06:26N 31°09' E 122°13'4 9.8
2018-May-22 06:00N 31°07' E 122°17'4 7.6
2018-May-22 05:30N 31°06' E 122°21'4 8.0
2018-May-22 05:00N 31°07' E 122°26'  
2018-May-19 10:49N 24°29' E 119°11'616.8
2018-May-19 10:27N 24°25' E 119°06'716.5
2018-May-19 10:00N 24°20' E 118°60'816.1
2018-May-19 09:30N 24°14' E 118°53'816.1
2018-May-19 09:00N 24°09' E 118°47'816.1
2018-May-19 08:30N 24°04' E 118°40'816.0
2018-May-19 08:00N 23°59' E 118°33'815.6
2018-May-19 07:30N 23°54' E 118°27'815.7
2018-May-19 07:00N 23°49' E 118°21'816.0
2018-May-19 06:30N 23°43' E 118°14'816.2
2018-May-19 06:00N 23°38' E 118°07'816.7
2018-May-19 05:30N 23°32' E 118°01'1017.0
2018-May-19 04:54N 23°25' E 117°52'717.4
2018-May-19 04:30N 23°21' E 117°47'917.5
2018-May-19 04:00N 23°14' E 117°41'1117.8
2018-May-19 03:22N 23°04' E 117°35'  

Dump ship's entire track history